sensor_id;sensor_type;location;lat;lon;timestamp;temperature;humidity
22071;DHT22;11200;51.488;6.668;2023-09-30T00:01:01;13.80;99.90
22071;DHT22;11200;51.488;6.668;2023-09-30T00:03:27;13.70;99.90
22071;DHT22;11200;51.488;6.668;2023-09-30T00:05:53;13.70;99.90
22071;DHT22;11200;51.488;6.668;2023-09-30T00:08:19;13.80;99.90
22071;DHT22;11200;51.488;6.668;2023-09-30T00:10:45;13.70;99.90
22071;DHT22;11200;51.488;6.668;2023-09-30T00:13:11;13.70;99.90
22071;DHT22;11200;51.488;6.668;2023-09-30T00:15:36;13.70;99.90
22071;DHT22;11200;51.488;6.668;2023-09-30T00:18:02;13.70;99.90
22071;DHT22;11200;51.488;6.668;2023-09-30T00:20:28;13.60;99.90
22071;DHT22;11200;51.488;6.668;2023-09-30T00:22:54;13.60;99.90
22071;DHT22;11200;51.488;6.668;2023-09-30T00:25:19;13.70;99.90
22071;DHT22;11200;51.488;6.668;2023-09-30T00:27:46;13.70;99.90
22071;DHT22;11200;51.488;6.668;2023-09-30T00:30:12;13.60;99.90
22071;DHT22;11200;51.488;6.668;2023-09-30T00:32:37;13.60;99.90
22071;DHT22;11200;51.488;6.668;2023-09-30T00:35:05;13.70;99.90
22071;DHT22;11200;51.488;6.668;2023-09-30T00:37:34;13.60;99.90
22071;DHT22;11200;51.488;6.668;2023-09-30T00:40:00;13.60;99.90
22071;DHT22;11200;51.488;6.668;2023-09-30T00:42:25;13.60;99.90
22071;DHT22;11200;51.488;6.668;2023-09-30T00:44:52;13.60;99.90
22071;DHT22;11200;51.488;6.668;2023-09-30T00:47:17;13.50;99.90
22071;DHT22;11200;51.488;6.668;2023-09-30T00:49:43;13.60;99.90
22071;DHT22;11200;51.488;6.668;2023-09-30T00:52:09;13.50;99.90
22071;DHT22;11200;51.488;6.668;2023-09-30T00:54:35;13.50;99.90
22071;DHT22;11200;51.488;6.668;2023-09-30T00:57:03;13.60;99.90
22071;DHT22;11200;51.488;6.668;2023-09-30T00:59:30;13.60;99.90
22071;DHT22;11200;51.488;6.668;2023-09-30T01:01:56;13.50;99.90
22071;DHT22;11200;51.488;6.668;2023-09-30T01:04:25;13.50;99.90
22071;DHT22;11200;51.488;6.668;2023-09-30T01:06:51;13.50;99.90
22071;DHT22;11200;51.488;6.668;2023-09-30T01:09:17;13.50;99.90
22071;DHT22;11200;51.488;6.668;2023-09-30T01:11:43;13.50;99.90
22071;DHT22;11200;51.488;6.668;2023-09-30T01:14:32;13.50;99.90
22071;DHT22;11200;51.488;6.668;2023-09-30T01:17:00;13.50;99.90
22071;DHT22;11200;51.488;6.668;2023-09-30T01:19:26;13.50;99.90
22071;DHT22;11200;51.488;6.668;2023-09-30T01:21:56;13.40;99.90
22071;DHT22;11200;51.488;6.668;2023-09-30T01:24:24;13.40;99.90
22071;DHT22;11200;51.488;6.668;2023-09-30T01:26:50;13.50;99.90
22071;DHT22;11200;51.488;6.668;2023-09-30T01:29:16;13.50;99.90
22071;DHT22;11200;51.488;6.668;2023-09-30T01:31:42;13.50;99.90
22071;DHT22;11200;51.488;6.668;2023-09-30T01:34:08;13.40;99.90
22071;DHT22;11200;51.488;6.668;2023-09-30T01:36:33;13.40;99.90
22071;DHT22;11200;51.488;6.668;2023-09-30T01:38:59;13.40;99.90
22071;DHT22;11200;51.488;6.668;2023-09-30T01:41:26;13.40;99.90
22071;DHT22;11200;51.488;6.668;2023-09-30T01:43:52;13.50;99.90
22071;DHT22;11200;51.488;6.668;2023-09-30T01:46:18;13.40;99.90
22071;DHT22;11200;51.488;6.668;2023-09-30T01:48:44;13.40;99.90
22071;DHT22;11200;51.488;6.668;2023-09-30T01:51:10;13.40;99.90
22071;DHT22;11200;51.488;6.668;2023-09-30T01:53:36;13.40;99.90
22071;DHT22;11200;51.488;6.668;2023-09-30T01:56:02;13.30;99.90
22071;DHT22;11200;51.488;6.668;2023-09-30T01:58:27;13.30;99.90
22071;DHT22;11200;51.488;6.668;2023-09-30T02:00:53;13.30;99.90
22071;DHT22;11200;51.488;6.668;2023-09-30T02:03:19;13.30;99.90
22071;DHT22;11200;51.488;6.668;2023-09-30T02:05:45;13.30;99.90
22071;DHT22;11200;51.488;6.668;2023-09-30T02:08:10;13.30;99.90
22071;DHT22;11200;51.488;6.668;2023-09-30T02:10:36;13.30;99.90
22071;DHT22;11200;51.488;6.668;2023-09-30T02:13:02;13.30;99.90
22071;DHT22;11200;51.488;6.668;2023-09-30T02:15:31;13.20;99.90
22071;DHT22;11200;51.488;6.668;2023-09-30T02:17:57;13.20;99.90
22071;DHT22;11200;51.488;6.668;2023-09-30T02:20:23;13.30;99.90
22071;DHT22;11200;51.488;6.668;2023-09-30T02:22:52;13.10;99.90
22071;DHT22;11200;51.488;6.668;2023-09-30T02:25:18;13.20;99.90
22071;DHT22;11200;51.488;6.668;2023-09-30T02:27:43;13.20;99.90
22071;DHT22;11200;51.488;6.668;2023-09-30T02:30:11;13.10;99.90
22071;DHT22;11200;51.488;6.668;2023-09-30T02:32:40;13.10;99.90
22071;DHT22;11200;51.488;6.668;2023-09-30T02:35:11;13.10;99.90
22071;DHT22;11200;51.488;6.668;2023-09-30T02:37:38;13.10;99.90
22071;DHT22;11200;51.488;6.668;2023-09-30T02:40:04;13.10;99.90
22071;DHT22;11200;51.488;6.668;2023-09-30T02:42:31;13.00;99.90
22071;DHT22;11200;51.488;6.668;2023-09-30T02:44:59;13.00;99.90
22071;DHT22;11200;51.488;6.668;2023-09-30T02:47:26;13.00;99.90
22071;DHT22;11200;51.488;6.668;2023-09-30T02:49:52;13.00;99.90
22071;DHT22;11200;51.488;6.668;2023-09-30T02:52:17;13.00;99.90
22071;DHT22;11200;51.488;6.668;2023-09-30T02:54:43;12.90;99.90
22071;DHT22;11200;51.488;6.668;2023-09-30T02:57:08;12.90;99.90
22071;DHT22;11200;51.488;6.668;2023-09-30T02:59:35;12.90;99.90
22071;DHT22;11200;51.488;6.668;2023-09-30T03:02:01;12.90;99.90
22071;DHT22;11200;51.488;6.668;2023-09-30T03:04:28;12.90;99.90
22071;DHT22;11200;51.488;6.668;2023-09-30T03:06:54;12.80;99.90
22071;DHT22;11200;51.488;6.668;2023-09-30T03:09:22;12.80;99.90
22071;DHT22;11200;51.488;6.668;2023-09-30T03:11:47;12.80;99.90
22071;DHT22;11200;51.488;6.668;2023-09-30T03:14:13;12.80;99.90
22071;DHT22;11200;51.488;6.668;2023-09-30T03:16:39;12.80;99.90
22071;DHT22;11200;51.488;6.668;2023-09-30T03:19:06;12.80;99.90
22071;DHT22;11200;51.488;6.668;2023-09-30T03:21:34;12.70;99.90
22071;DHT22;11200;51.488;6.668;2023-09-30T03:24:04;12.80;99.90
22071;DHT22;11200;51.488;6.668;2023-09-30T03:26:30;12.70;99.90
22071;DHT22;11200;51.488;6.668;2023-09-30T03:28:56;12.70;99.90
22071;DHT22;11200;51.488;6.668;2023-09-30T03:31:22;12.70;99.90
22071;DHT22;11200;51.488;6.668;2023-09-30T03:33:51;12.70;99.90
22071;DHT22;11200;51.488;6.668;2023-09-30T03:36:20;12.70;99.90
22071;DHT22;11200;51.488;6.668;2023-09-30T03:38:47;12.70;99.90
22071;DHT22;11200;51.488;6.668;2023-09-30T03:41:13;12.70;99.90
22071;DHT22;11200;51.488;6.668;2023-09-30T03:43:41;12.60;99.90
22071;DHT22;11200;51.488;6.668;2023-09-30T03:46:08;12.60;99.90
22071;DHT22;11200;51.488;6.668;2023-09-30T03:48:33;12.60;99.90
22071;DHT22;11200;51.488;6.668;2023-09-30T03:51:11;12.90;99.90
22071;DHT22;11200;51.488;6.668;2023-09-30T03:53:42;12.60;99.90
22071;DHT22;11200;51.488;6.668;2023-09-30T03:56:08;12.60;99.90
22071;DHT22;11200;51.488;6.668;2023-09-30T03:58:37;12.60;99.90
22071;DHT22;11200;51.488;6.668;2023-09-30T04:01:03;12.60;99.90
22071;DHT22;11200;51.488;6.668;2023-09-30T04:03:29;12.60;99.90
22071;DHT22;11200;51.488;6.668;2023-09-30T04:05:58;12.60;99.90
22071;DHT22;11200;51.488;6.668;2023-09-30T04:08:23;12.60;99.90
22071;DHT22;11200;51.488;6.668;2023-09-30T04:10:49;12.60;99.90
22071;DHT22;11200;51.488;6.668;2023-09-30T04:13:15;12.50;99.90
22071;DHT22;11200;51.488;6.668;2023-09-30T04:15:40;12.50;99.90
22071;DHT22;11200;51.488;6.668;2023-09-30T04:18:06;12.60;99.90
22071;DHT22;11200;51.488;6.668;2023-09-30T04:20:31;12.60;99.90
22071;DHT22;11200;51.488;6.668;2023-09-30T04:22:57;12.60;99.90
22071;DHT22;11200;51.488;6.668;2023-09-30T04:25:23;12.50;99.90
22071;DHT22;11200;51.488;6.668;2023-09-30T04:27:53;12.60;99.90
22071;DHT22;11200;51.488;6.668;2023-09-30T04:30:19;12.50;99.90
22071;DHT22;11200;51.488;6.668;2023-09-30T04:32:44;12.50;99.90
22071;DHT22;11200;51.488;6.668;2023-09-30T04:35:10;12.50;99.90
22071;DHT22;11200;51.488;6.668;2023-09-30T04:37:37;12.40;99.90
22071;DHT22;11200;51.488;6.668;2023-09-30T04:40:08;12.40;99.90
22071;DHT22;11200;51.488;6.668;2023-09-30T04:42:43;12.40;99.90
22071;DHT22;11200;51.488;6.668;2023-09-30T04:45:10;12.40;99.90
22071;DHT22;11200;51.488;6.668;2023-09-30T04:47:36;12.40;99.90
22071;DHT22;11200;51.488;6.668;2023-09-30T04:50:05;12.40;99.90
22071;DHT22;11200;51.488;6.668;2023-09-30T04:52:32;12.40;99.90
22071;DHT22;11200;51.488;6.668;2023-09-30T04:54:58;12.40;99.90
22071;DHT22;11200;51.488;6.668;2023-09-30T04:57:25;12.30;99.90
22071;DHT22;11200;51.488;6.668;2023-09-30T04:59:51;12.40;99.90
22071;DHT22;11200;51.488;6.668;2023-09-30T05:02:17;12.30;99.90
22071;DHT22;11200;51.488;6.668;2023-09-30T05:04:42;12.30;99.90
22071;DHT22;11200;51.488;6.668;2023-09-30T05:07:08;12.30;99.90
22071;DHT22;11200;51.488;6.668;2023-09-30T05:09:34;12.30;99.90
22071;DHT22;11200;51.488;6.668;2023-09-30T05:11:59;12.30;99.90
22071;DHT22;11200;51.488;6.668;2023-09-30T05:14:25;12.30;99.90
22071;DHT22;11200;51.488;6.668;2023-09-30T05:16:53;12.20;99.90
22071;DHT22;11200;51.488;6.668;2023-09-30T05:19:18;12.20;99.90
22071;DHT22;11200;51.488;6.668;2023-09-30T05:21:46;12.20;99.90
22071;DHT22;11200;51.488;6.668;2023-09-30T05:24:12;12.20;99.90
22071;DHT22;11200;51.488;6.668;2023-09-30T05:26:38;12.20;99.90
22071;DHT22;11200;51.488;6.668;2023-09-30T05:29:04;12.20;99.90
22071;DHT22;11200;51.488;6.668;2023-09-30T05:31:30;12.20;99.90
22071;DHT22;11200;51.488;6.668;2023-09-30T05:33:56;12.20;99.90
22071;DHT22;11200;51.488;6.668;2023-09-30T05:36:21;12.20;99.90
22071;DHT22;11200;51.488;6.668;2023-09-30T05:38:47;12.20;99.90
22071;DHT22;11200;51.488;6.668;2023-09-30T05:41:16;12.20;99.90
22071;DHT22;11200;51.488;6.668;2023-09-30T05:43:42;12.20;99.90
22071;DHT22;11200;51.488;6.668;2023-09-30T05:46:09;12.10;99.90
22071;DHT22;11200;51.488;6.668;2023-09-30T05:48:35;12.20;99.90
22071;DHT22;11200;51.488;6.668;2023-09-30T05:51:00;12.10;99.90
22071;DHT22;11200;51.488;6.668;2023-09-30T05:53:28;12.10;99.90
22071;DHT22;11200;51.488;6.668;2023-09-30T05:55:54;12.10;99.90
22071;DHT22;11200;51.488;6.668;2023-09-30T05:58:19;12.10;99.90
22071;DHT22;11200;51.488;6.668;2023-09-30T06:00:45;12.10;99.90
22071;DHT22;11200;51.488;6.668;2023-09-30T06:03:11;12.10;99.90
22071;DHT22;11200;51.488;6.668;2023-09-30T06:05:40;12.20;99.90
22071;DHT22;11200;51.488;6.668;2023-09-30T06:08:07;12.10;99.90
22071;DHT22;11200;51.488;6.668;2023-09-30T06:10:36;12.10;99.90
22071;DHT22;11200;51.488;6.668;2023-09-30T06:13:03;12.10;99.90
22071;DHT22;11200;51.488;6.668;2023-09-30T06:15:29;12.10;99.90
22071;DHT22;11200;51.488;6.668;2023-09-30T06:17:55;12.10;99.90
22071;DHT22;11200;51.488;6.668;2023-09-30T06:20:21;12.10;99.90
22071;DHT22;11200;51.488;6.668;2023-09-30T06:22:56;12.10;99.90
22071;DHT22;11200;51.488;6.668;2023-09-30T06:25:22;12.10;99.90
22071;DHT22;11200;51.488;6.668;2023-09-30T06:27:53;12.10;99.90
22071;DHT22;11200;51.488;6.668;2023-09-30T06:30:20;12.10;99.90
22071;DHT22;11200;51.488;6.668;2023-09-30T06:32:46;12.20;99.90
22071;DHT22;11200;51.488;6.668;2023-09-30T06:35:12;12.10;99.90
22071;DHT22;11200;51.488;6.668;2023-09-30T06:37:39;12.10;99.90
22071;DHT22;11200;51.488;6.668;2023-09-30T06:40:09;12.20;99.90
22071;DHT22;11200;51.488;6.668;2023-09-30T06:42:37;12.20;99.90
22071;DHT22;11200;51.488;6.668;2023-09-30T06:45:03;12.20;99.90
22071;DHT22;11200;51.488;6.668;2023-09-30T06:47:35;12.20;99.90
22071;DHT22;11200;51.488;6.668;2023-09-30T06:50:02;12.20;99.90
22071;DHT22;11200;51.488;6.668;2023-09-30T06:52:34;12.20;99.90
22071;DHT22;11200;51.488;6.668;2023-09-30T06:55:03;12.20;99.90
22071;DHT22;11200;51.488;6.668;2023-09-30T06:57:34;12.20;99.90
22071;DHT22;11200;51.488;6.668;2023-09-30T06:59:59;12.30;99.90
22071;DHT22;11200;51.488;6.668;2023-09-30T07:02:25;12.30;99.90
22071;DHT22;11200;51.488;6.668;2023-09-30T07:04:52;12.30;99.90
22071;DHT22;11200;51.488;6.668;2023-09-30T07:07:18;12.30;99.90
22071;DHT22;11200;51.488;6.668;2023-09-30T07:09:44;12.30;99.90
22071;DHT22;11200;51.488;6.668;2023-09-30T07:12:12;12.60;99.90
22071;DHT22;11200;51.488;6.668;2023-09-30T07:14:38;12.40;99.90
22071;DHT22;11200;51.488;6.668;2023-09-30T07:17:03;12.40;99.90
22071;DHT22;11200;51.488;6.668;2023-09-30T07:19:30;12.50;99.90
22071;DHT22;11200;51.488;6.668;2023-09-30T07:21:56;12.50;99.90
22071;DHT22;11200;51.488;6.668;2023-09-30T07:24:22;12.90;99.90
22071;DHT22;11200;51.488;6.668;2023-09-30T07:26:48;12.50;99.90
22071;DHT22;11200;51.488;6.668;2023-09-30T07:29:13;12.50;99.90
22071;DHT22;11200;51.488;6.668;2023-09-30T07:31:39;13.20;99.90
22071;DHT22;11200;51.488;6.668;2023-09-30T07:34:04;12.60;99.90
22071;DHT22;11200;51.488;6.668;2023-09-30T07:36:30;12.70;99.90
22071;DHT22;11200;51.488;6.668;2023-09-30T07:38:56;12.70;99.90
22071;DHT22;11200;51.488;6.668;2023-09-30T07:41:21;12.70;99.90
22071;DHT22;11200;51.488;6.668;2023-09-30T07:43:47;12.70;99.90
22071;DHT22;11200;51.488;6.668;2023-09-30T07:46:13;12.80;99.90
22071;DHT22;11200;51.488;6.668;2023-09-30T07:48:40;12.80;99.90
22071;DHT22;11200;51.488;6.668;2023-09-30T07:51:06;12.90;99.90
22071;DHT22;11200;51.488;6.668;2023-09-30T07:53:35;13.00;99.90
22071;DHT22;11200;51.488;6.668;2023-09-30T07:56:01;13.00;99.90
22071;DHT22;11200;51.488;6.668;2023-09-30T07:58:26;13.10;99.90
22071;DHT22;11200;51.488;6.668;2023-09-30T08:00:52;13.10;99.90
22071;DHT22;11200;51.488;6.668;2023-09-30T08:03:18;13.20;99.90
22071;DHT22;11200;51.488;6.668;2023-09-30T08:05:44;13.30;99.90
22071;DHT22;11200;51.488;6.668;2023-09-30T08:08:12;13.40;99.90
22071;DHT22;11200;51.488;6.668;2023-09-30T08:10:38;13.50;99.90
22071;DHT22;11200;51.488;6.668;2023-09-30T08:13:04;13.60;99.90
22071;DHT22;11200;51.488;6.668;2023-09-30T08:15:30;13.70;99.90
22071;DHT22;11200;51.488;6.668;2023-09-30T08:17:56;13.90;99.90
22071;DHT22;11200;51.488;6.668;2023-09-30T08:20:21;14.00;99.90
22071;DHT22;11200;51.488;6.668;2023-09-30T08:22:47;14.20;99.90
22071;DHT22;11200;51.488;6.668;2023-09-30T08:25:13;14.40;99.90
22071;DHT22;11200;51.488;6.668;2023-09-30T08:27:39;14.50;99.90
22071;DHT22;11200;51.488;6.668;2023-09-30T08:30:06;14.80;99.90
22071;DHT22;11200;51.488;6.668;2023-09-30T08:32:33;14.90;99.90
22071;DHT22;11200;51.488;6.668;2023-09-30T08:34:59;15.10;99.90
22071;DHT22;11200;51.488;6.668;2023-09-30T08:37:24;15.30;99.90
22071;DHT22;11200;51.488;6.668;2023-09-30T08:39:50;15.50;99.90
22071;DHT22;11200;51.488;6.668;2023-09-30T08:42:22;15.70;99.90
22071;DHT22;11200;51.488;6.668;2023-09-30T08:44:52;15.90;99.90
22071;DHT22;11200;51.488;6.668;2023-09-30T08:47:20;16.10;99.90
22071;DHT22;11200;51.488;6.668;2023-09-30T08:49:48;16.20;99.90
22071;DHT22;11200;51.488;6.668;2023-09-30T08:52:16;16.40;99.90
22071;DHT22;11200;51.488;6.668;2023-09-30T08:54:42;16.60;99.90
22071;DHT22;11200;51.488;6.668;2023-09-30T08:57:12;16.80;99.90
22071;DHT22;11200;51.488;6.668;2023-09-30T08:59:41;17.00;99.90
22071;DHT22;11200;51.488;6.668;2023-09-30T09:02:10;17.10;99.90
22071;DHT22;11200;51.488;6.668;2023-09-30T09:04:37;17.30;99.90
22071;DHT22;11200;51.488;6.668;2023-09-30T09:07:03;17.40;99.90
22071;DHT22;11200;51.488;6.668;2023-09-30T09:09:28;17.50;99.90
22071;DHT22;11200;51.488;6.668;2023-09-30T09:11:54;17.60;99.90
22071;DHT22;11200;51.488;6.668;2023-09-30T09:14:25;17.70;99.90
22071;DHT22;11200;51.488;6.668;2023-09-30T09:17:05;17.90;99.90
22071;DHT22;11200;51.488;6.668;2023-09-30T09:19:31;18.00;99.90
22071;DHT22;11200;51.488;6.668;2023-09-30T09:21:59;18.10;99.90
22071;DHT22;11200;51.488;6.668;2023-09-30T09:24:38;18.20;99.90
22071;DHT22;11200;51.488;6.668;2023-09-30T09:29:37;18.50;99.90
22071;DHT22;11200;51.488;6.668;2023-09-30T09:32:13;18.50;99.90
22071;DHT22;11200;51.488;6.668;2023-09-30T09:34:40;18.60;99.90
22071;DHT22;11200;51.488;6.668;2023-09-30T09:37:18;18.80;99.90
22071;DHT22;11200;51.488;6.668;2023-09-30T09:42:31;19.10;99.90
22071;DHT22;11200;51.488;6.668;2023-09-30T09:44:58;19.20;99.90
22071;DHT22;11200;51.488;6.668;2023-09-30T09:47:24;19.30;99.90
22071;DHT22;11200;51.488;6.668;2023-09-30T09:49:51;19.50;99.90
22071;DHT22;11200;51.488;6.668;2023-09-30T09:52:19;19.60;99.90
22071;DHT22;11200;51.488;6.668;2023-09-30T09:54:45;19.70;99.90
22071;DHT22;11200;51.488;6.668;2023-09-30T09:57:14;19.80;99.90
22071;DHT22;11200;51.488;6.668;2023-09-30T09:59:43;20.00;99.90
22071;DHT22;11200;51.488;6.668;2023-09-30T10:02:11;20.10;99.90
22071;DHT22;11200;51.488;6.668;2023-09-30T10:04:41;20.10;99.90
22071;DHT22;11200;51.488;6.668;2023-09-30T10:07:14;20.20;99.90
22071;DHT22;11200;51.488;6.668;2023-09-30T10:09:45;20.30;99.90
22071;DHT22;11200;51.488;6.668;2023-09-30T10:12:12;20.50;99.90
22071;DHT22;11200;51.488;6.668;2023-09-30T10:14:38;20.50;99.90
22071;DHT22;11200;51.488;6.668;2023-09-30T10:17:04;20.60;99.90
22071;DHT22;11200;51.488;6.668;2023-09-30T10:19:29;20.60;99.90
22071;DHT22;11200;51.488;6.668;2023-09-30T10:24:57;20.70;99.90
22071;DHT22;11200;51.488;6.668;2023-09-30T10:40:50;21.30;99.90
22071;DHT22;11200;51.488;6.668;2023-09-30T10:45:55;21.50;99.90
22071;DHT22;11200;51.488;6.668;2023-09-30T10:51:16;21.80;99.90
22071;DHT22;11200;51.488;6.668;2023-09-30T10:56:13;21.90;99.90
22071;DHT22;11200;51.488;6.668;2023-09-30T10:58:40;22.00;99.90
22071;DHT22;11200;51.488;6.668;2023-09-30T11:01:06;22.10;99.90
22071;DHT22;11200;51.488;6.668;2023-09-30T11:03:41;22.10;99.90
22071;DHT22;11200;51.488;6.668;2023-09-30T11:06:07;22.10;99.90
22071;DHT22;11200;51.488;6.668;2023-09-30T11:08:38;22.60;99.90
22071;DHT22;11200;51.488;6.668;2023-09-30T11:11:04;22.20;99.90
22071;DHT22;11200;51.488;6.668;2023-09-30T11:13:36;22.20;99.90
22071;DHT22;11200;51.488;6.668;2023-09-30T11:16:03;22.20;99.90
22071;DHT22;11200;51.488;6.668;2023-09-30T11:18:33;22.20;99.90
22071;DHT22;11200;51.488;6.668;2023-09-30T11:21:09;22.20;99.90
22071;DHT22;11200;51.488;6.668;2023-09-30T11:23:36;22.20;99.90
22071;DHT22;11200;51.488;6.668;2023-09-30T11:26:03;22.20;99.90
22071;DHT22;11200;51.488;6.668;2023-09-30T11:29:04;22.20;99.90
22071;DHT22;11200;51.488;6.668;2023-09-30T11:31:29;22.20;99.90
22071;DHT22;11200;51.488;6.668;2023-09-30T11:33:59;22.10;99.90
22071;DHT22;11200;51.488;6.668;2023-09-30T11:36:34;22.30;99.90
22071;DHT22;11200;51.488;6.668;2023-09-30T11:39:00;22.30;99.90
22071;DHT22;11200;51.488;6.668;2023-09-30T11:41:41;22.40;99.90
22071;DHT22;11200;51.488;6.668;2023-09-30T11:44:11;22.40;99.90
22071;DHT22;11200;51.488;6.668;2023-09-30T11:46:59;22.40;99.90
22071;DHT22;11200;51.488;6.668;2023-09-30T11:49:39;22.30;99.90
22071;DHT22;11200;51.488;6.668;2023-09-30T11:52:08;22.30;99.90
22071;DHT22;11200;51.488;6.668;2023-09-30T11:54:35;22.30;99.90
22071;DHT22;11200;51.488;6.668;2023-09-30T11:57:10;22.20;99.90
22071;DHT22;11200;51.488;6.668;2023-09-30T11:59:39;22.20;99.90
22071;DHT22;11200;51.488;6.668;2023-09-30T12:02:07;22.20;99.90
22071;DHT22;11200;51.488;6.668;2023-09-30T12:04:34;22.20;99.90
22071;DHT22;11200;51.488;6.668;2023-09-30T12:07:00;22.20;99.90
22071;DHT22;11200;51.488;6.668;2023-09-30T12:09:26;22.20;99.90
22071;DHT22;11200;51.488;6.668;2023-09-30T12:11:53;22.20;99.90
22071;DHT22;11200;51.488;6.668;2023-09-30T12:14:20;22.20;99.90
22071;DHT22;11200;51.488;6.668;2023-09-30T12:16:46;22.20;99.90
22071;DHT22;11200;51.488;6.668;2023-09-30T12:19:13;22.20;99.90
22071;DHT22;11200;51.488;6.668;2023-09-30T12:21:41;22.20;99.90
22071;DHT22;11200;51.488;6.668;2023-09-30T12:24:07;22.20;99.90
22071;DHT22;11200;51.488;6.668;2023-09-30T12:26:37;22.20;99.90
22071;DHT22;11200;51.488;6.668;2023-09-30T12:29:03;22.20;99.90
22071;DHT22;11200;51.488;6.668;2023-09-30T12:31:31;22.30;99.90
22071;DHT22;11200;51.488;6.668;2023-09-30T12:33:58;22.30;99.90
22071;DHT22;11200;51.488;6.668;2023-09-30T12:36:25;22.30;99.90
22071;DHT22;11200;51.488;6.668;2023-09-30T12:38:50;22.30;99.90
22071;DHT22;11200;51.488;6.668;2023-09-30T12:41:16;22.30;99.90
22071;DHT22;11200;51.488;6.668;2023-09-30T12:43:44;22.40;99.90
22071;DHT22;11200;51.488;6.668;2023-09-30T12:46:10;22.40;99.90
22071;DHT22;11200;51.488;6.668;2023-09-30T12:48:39;22.30;99.90
22071;DHT22;11200;51.488;6.668;2023-09-30T12:51:05;22.40;99.90
22071;DHT22;11200;51.488;6.668;2023-09-30T12:53:32;22.40;99.90
22071;DHT22;11200;51.488;6.668;2023-09-30T12:55:59;22.40;99.90
22071;DHT22;11200;51.488;6.668;2023-09-30T12:58:25;22.30;99.90
22071;DHT22;11200;51.488;6.668;2023-09-30T13:00:56;22.30;99.90
22071;DHT22;11200;51.488;6.668;2023-09-30T13:03:22;22.30;99.90
22071;DHT22;11200;51.488;6.668;2023-09-30T13:05:50;22.30;99.90
22071;DHT22;11200;51.488;6.668;2023-09-30T13:08:16;22.30;99.90
22071;DHT22;11200;51.488;6.668;2023-09-30T13:10:41;22.20;99.90
22071;DHT22;11200;51.488;6.668;2023-09-30T13:13:12;22.20;99.90
22071;DHT22;11200;51.488;6.668;2023-09-30T13:15:41;22.20;99.90
22071;DHT22;11200;51.488;6.668;2023-09-30T13:18:07;22.10;99.90
22071;DHT22;11200;51.488;6.668;2023-09-30T13:20:32;22.00;99.90
22071;DHT22;11200;51.488;6.668;2023-09-30T13:22:58;22.00;99.90
22071;DHT22;11200;51.488;6.668;2023-09-30T13:25:24;21.90;99.90
22071;DHT22;11200;51.488;6.668;2023-09-30T13:27:49;21.90;99.90
22071;DHT22;11200;51.488;6.668;2023-09-30T13:30:15;21.80;99.90
22071;DHT22;11200;51.488;6.668;2023-09-30T13:32:43;21.80;99.90
22071;DHT22;11200;51.488;6.668;2023-09-30T13:35:09;21.80;99.90
22071;DHT22;11200;51.488;6.668;2023-09-30T13:37:35;21.70;99.90
22071;DHT22;11200;51.488;6.668;2023-09-30T13:40:03;21.70;99.90
22071;DHT22;11200;51.488;6.668;2023-09-30T13:42:30;21.60;99.90
22071;DHT22;11200;51.488;6.668;2023-09-30T13:44:56;21.60;99.90
22071;DHT22;11200;51.488;6.668;2023-09-30T13:47:25;21.50;99.90
22071;DHT22;11200;51.488;6.668;2023-09-30T13:49:52;21.50;99.90
22071;DHT22;11200;51.488;6.668;2023-09-30T13:52:17;21.50;99.90
22071;DHT22;11200;51.488;6.668;2023-09-30T13:54:43;21.40;99.90
22071;DHT22;11200;51.488;6.668;2023-09-30T13:57:09;21.40;99.90
22071;DHT22;11200;51.488;6.668;2023-09-30T13:59:35;21.30;99.90
22071;DHT22;11200;51.488;6.668;2023-09-30T14:02:01;21.30;99.90
22071;DHT22;11200;51.488;6.668;2023-09-30T14:04:29;21.20;99.90
22071;DHT22;11200;51.488;6.668;2023-09-30T14:06:55;21.20;99.90
22071;DHT22;11200;51.488;6.668;2023-09-30T14:09:21;21.10;99.90
22071;DHT22;11200;51.488;6.668;2023-09-30T14:11:47;21.10;99.90
22071;DHT22;11200;51.488;6.668;2023-09-30T14:14:13;21.00;99.90
22071;DHT22;11200;51.488;6.668;2023-09-30T14:16:39;21.00;99.90
22071;DHT22;11200;51.488;6.668;2023-09-30T14:19:04;21.10;99.90
22071;DHT22;11200;51.488;6.668;2023-09-30T14:21:30;20.90;99.90
22071;DHT22;11200;51.488;6.668;2023-09-30T14:23:57;21.00;99.90
22071;DHT22;11200;51.488;6.668;2023-09-30T14:26:23;20.80;99.90
22071;DHT22;11200;51.488;6.668;2023-09-30T14:28:48;20.80;99.90
22071;DHT22;11200;51.488;6.668;2023-09-30T14:31:14;20.70;99.90
22071;DHT22;11200;51.488;6.668;2023-09-30T14:33:39;20.70;99.90
22071;DHT22;11200;51.488;6.668;2023-09-30T14:36:05;20.60;99.90
22071;DHT22;11200;51.488;6.668;2023-09-30T14:38:31;20.60;99.90
22071;DHT22;11200;51.488;6.668;2023-09-30T14:40:58;20.50;99.90
22071;DHT22;11200;51.488;6.668;2023-09-30T14:43:23;20.50;99.90
22071;DHT22;11200;51.488;6.668;2023-09-30T14:45:49;20.40;99.90
22071;DHT22;11200;51.488;6.668;2023-09-30T14:48:14;20.40;99.90
22071;DHT22;11200;51.488;6.668;2023-09-30T14:50:50;20.30;99.90
22071;DHT22;11200;51.488;6.668;2023-09-30T14:53:16;20.30;99.90
22071;DHT22;11200;51.488;6.668;2023-09-30T14:55:42;20.30;99.90
22071;DHT22;11200;51.488;6.668;2023-09-30T14:58:08;20.20;99.90
22071;DHT22;11200;51.488;6.668;2023-09-30T15:00:33;20.20;99.90
22071;DHT22;11200;51.488;6.668;2023-09-30T15:02:59;20.10;99.90
22071;DHT22;11200;51.488;6.668;2023-09-30T15:05:25;20.10;99.90
22071;DHT22;11200;51.488;6.668;2023-09-30T15:07:51;20.00;99.90
22071;DHT22;11200;51.488;6.668;2023-09-30T15:10:17;20.00;99.90
22071;DHT22;11200;51.488;6.668;2023-09-30T15:12:43;19.90;99.90
22071;DHT22;11200;51.488;6.668;2023-09-30T15:15:09;19.90;99.90
22071;DHT22;11200;51.488;6.668;2023-09-30T15:17:35;19.90;99.90
22071;DHT22;11200;51.488;6.668;2023-09-30T15:20:01;19.80;99.90
22071;DHT22;11200;51.488;6.668;2023-09-30T15:22:27;19.80;99.90
22071;DHT22;11200;51.488;6.668;2023-09-30T15:24:52;19.70;99.90
22071;DHT22;11200;51.488;6.668;2023-09-30T15:27:18;19.70;99.90
22071;DHT22;11200;51.488;6.668;2023-09-30T15:29:44;19.70;99.90
22071;DHT22;11200;51.488;6.668;2023-09-30T15:32:11;19.60;99.90
22071;DHT22;11200;51.488;6.668;2023-09-30T15:34:37;19.60;99.90
22071;DHT22;11200;51.488;6.668;2023-09-30T15:37:06;19.50;99.90
22071;DHT22;11200;51.488;6.668;2023-09-30T15:39:38;19.40;99.90
22071;DHT22;11200;51.488;6.668;2023-09-30T15:42:04;19.40;99.90
22071;DHT22;11200;51.488;6.668;2023-09-30T15:44:30;19.40;99.90
22071;DHT22;11200;51.488;6.668;2023-09-30T15:46:55;19.30;99.90
22071;DHT22;11200;51.488;6.668;2023-09-30T15:49:22;19.30;99.90
22071;DHT22;11200;51.488;6.668;2023-09-30T15:51:48;19.30;99.90
22071;DHT22;11200;51.488;6.668;2023-09-30T15:54:14;19.20;99.90
22071;DHT22;11200;51.488;6.668;2023-09-30T15:56:40;19.20;99.90
22071;DHT22;11200;51.488;6.668;2023-09-30T15:59:10;19.20;99.90